Time;durP1;ratioP1;P1;durP2;ratioP2;P2;SDS_P1;SDS_P2;PMS_P1;PMS_P2;Temp;Humidity;BMP_temperature;BMP_pressure;BME280_temperature;BME280_humidity;BME280_pressure;Samples;Min_cycle;Max_cycle;Signal;HPM_P1;HPM_P2
2023/04/26 00:00:54;;;;;;;6.07;1.80;;;6.10;1.00;;;;;;5033255;28;20242;-80
2023/04/26 00:03:24;;;;;;;8.93;2.27;;;6.10;1.00;;;;;;5032144;28;20765;-82
2023/04/26 00:05:52;;;;;;;12.07;2.45;;;6.10;1.00;;;;;;5031793;28;20538;-79
2023/04/26 00:08:19;;;;;;;10.07;2.88;;;6.10;1.00;;;;;;5016714;28;20291;-79
2023/04/26 00:10:46;;;;;;;10.02;2.35;;;6.10;1.00;;;;;;5024894;28;21202;-78
2023/04/26 00:13:13;;;;;;;9.52;2.22;;;6.10;1.00;;;;;;5031993;28;20292;-79
2023/04/26 00:15:41;;;;;;;7.63;2.05;;;6.10;1.00;;;;;;5033900;28;20272;-81
2023/04/26 00:18:08;;;;;;;7.30;2.20;;;6.00;1.00;;;;;;5032656;28;20269;-81
2023/04/26 00:20:36;;;;;;;10.00;2.30;;;6.00;1.00;;;;;;5035591;28;20246;-81
2023/04/26 00:23:04;;;;;;;9.45;2.25;;;5.90;1.00;;;;;;5035587;28;20244;-80
2023/04/26 00:25:31;;;;;;;10.50;1.98;;;5.90;1.00;;;;;;5029357;28;20244;-80
2023/04/26 00:27:59;;;;;;;8.25;2.25;;;5.80;1.00;;;;;;5036037;28;20323;-80
2023/04/26 00:30:27;;;;;;;9.73;2.47;;;5.80;1.00;;;;;;5046259;28;21160;-81
2023/04/26 00:32:54;;;;;;;7.50;2.03;;;5.80;1.00;;;;;;5049366;28;20334;-81
2023/04/26 00:35:23;;;;;;;9.27;2.15;;;5.80;1.00;;;;;;5047585;28;20331;-80
2023/04/26 00:37:52;;;;;;;10.43;2.33;;;5.80;1.00;;;;;;5048115;28;20242;-81
2023/04/26 00:40:19;;;;;;;11.43;2.30;;;5.70;1.00;;;;;;5047157;28;20258;-81
2023/04/26 00:42:49;;;;;;;8.40;1.80;;;5.70;1.00;;;;;;5052073;28;20291;-81
2023/04/26 00:45:17;;;;;;;11.38;2.95;;;5.70;1.00;;;;;;5051488;28;20241;-79
2023/04/26 00:47:46;;;;;;;10.52;2.15;;;5.70;1.00;;;;;;5032516;28;20752;-82
2023/04/26 00:50:13;;;;;;;9.70;2.28;;;5.70;1.00;;;;;;5033554;28;20231;-81
2023/04/26 00:52:40;;;;;;;11.63;2.40;;;5.70;1.00;;;;;;5039272;28;20248;-81
2023/04/26 00:55:10;;;;;;;9.73;2.95;;;5.70;1.00;;;;;;5046965;28;20254;-82
2023/04/26 00:57:39;;;;;;;9.88;2.20;;;5.60;1.00;;;;;;5047657;28;20249;-82
2023/04/26 01:00:09;;;;;;;7.90;2.60;;;5.60;1.00;;;;;;5048752;28;20242;-80
2023/04/26 01:02:37;;;;;;;8.85;2.40;;;5.60;1.00;;;;;;5042756;28;20238;-81
2023/04/26 01:05:05;;;;;;;10.57;2.35;;;5.50;1.00;;;;;;5047233;28;20232;-81
2023/04/26 01:07:35;;;;;;;7.15;2.00;;;5.50;1.00;;;;;;5052144;28;20234;-80
2023/04/26 01:10:03;;;;;;;7.80;1.95;;;5.40;1.00;;;;;;5050416;28;20242;-80
2023/04/26 01:12:32;;;;;;;10.00;2.10;;;5.40;1.00;;;;;;5048753;28;20315;-80
2023/04/26 01:15:01;;;;;;;11.27;3.20;;;5.40;1.00;;;;;;5046338;28;21834;-81
2023/04/26 01:17:28;;;;;;;7.90;2.22;;;5.30;1.00;;;;;;5051868;28;20265;-81
2023/04/26 01:19:56;;;;;;;9.60;2.40;;;5.30;1.00;;;;;;5050211;28;20237;-79
2023/04/26 01:22:23;;;;;;;8.35;2.15;;;5.30;1.00;;;;;;5048655;28;20231;-81
2023/04/26 01:24:52;;;;;;;10.15;3.05;;;5.30;1.00;;;;;;5049509;28;20257;-81
2023/04/26 01:27:20;;;;;;;10.48;3.15;;;5.30;1.00;;;;;;5048627;28;20303;-80
2023/04/26 01:29:47;;;;;;;8.80;2.42;;;5.30;1.00;;;;;;5046227;28;20246;-80
2023/04/26 01:32:14;;;;;;;10.70;2.55;;;5.30;1.00;;;;;;5047497;28;20275;-81
2023/04/26 01:34:41;;;;;;;10.45;2.58;;;5.30;1.00;;;;;;5047986;28;20234;-80
2023/04/26 01:37:08;;;;;;;9.82;2.20;;;5.30;1.00;;;;;;5047319;28;20740;-80
2023/04/26 01:39:35;;;;;;;7.85;2.03;;;5.30;1.00;;;;;;5054284;28;20277;-80
2023/04/26 01:42:06;;;;;;;7.88;2.22;;;5.30;1.00;;;;;;5053218;28;20236;-80
2023/04/26 01:44:33;;;;;;;9.20;2.58;;;5.20;1.00;;;;;;5048030;28;20333;-80
2023/04/26 01:47:00;;;;;;;9.65;2.00;;;5.20;1.00;;;;;;5047464;28;20978;-79
2023/04/26 01:49:29;;;;;;;9.55;2.45;;;5.20;1.00;;;;;;5046012;28;20242;-80
2023/04/26 01:51:56;;;;;;;8.88;2.00;;;5.20;1.00;;;;;;5048394;28;20725;-81
2023/04/26 01:54:24;;;;;;;8.82;2.03;;;5.20;1.00;;;;;;5046253;28;20859;-82
2023/04/26 01:56:52;;;;;;;10.30;2.70;;;5.20;1.00;;;;;;5047801;28;20235;-80
2023/04/26 01:59:20;;;;;;;9.65;2.80;;;5.20;1.00;;;;;;5047681;28;20249;-80
2023/04/26 02:01:47;;;;;;;8.65;2.50;;;5.10;1.00;;;;;;5049619;28;20265;-80
2023/04/26 02:04:14;;;;;;;11.45;2.75;;;5.10;1.00;;;;;;5045308;28;20237;-80
2023/04/26 02:06:44;;;;;;;8.13;2.05;;;5.10;1.00;;;;;;5045942;28;20721;-79
2023/04/26 02:09:11;;;;;;;9.93;2.20;;;5.10;1.00;;;;;;5047537;28;20241;-81
2023/04/26 02:11:38;;;;;;;7.68;2.10;;;5.00;1.00;;;;;;5048899;28;21107;-80
2023/04/26 02:14:06;;;;;;;10.77;3.08;;;5.00;1.00;;;;;;5046787;28;20239;-78
2023/04/26 02:16:34;;;;;;;10.23;2.40;;;5.00;1.00;;;;;;5048680;28;20325;-80
2023/04/26 02:19:01;;;;;;;9.70;2.00;;;5.00;1.00;;;;;;5046629;28;20230;-80
2023/04/26 02:21:29;;;;;;;8.38;2.80;;;4.90;1.00;;;;;;5043034;28;20372;-79
2023/04/26 02:23:56;;;;;;;9.30;2.42;;;4.90;1.00;;;;;;5047948;28;20237;-79
2023/04/26 02:26:23;;;;;;;10.30;2.95;;;4.90;1.00;;;;;;5046669;28;20242;-80
2023/04/26 02:28:50;;;;;;;11.45;2.83;;;4.90;1.00;;;;;;5047981;28;20274;-79
2023/04/26 02:31:17;;;;;;;8.60;2.30;;;4.90;1.00;;;;;;5044723;28;20284;-79
2023/04/26 02:33:45;;;;;;;9.77;2.70;;;4.90;1.00;;;;;;5046872;28;20566;-79
2023/04/26 02:36:12;;;;;;;15.85;3.30;;;4.80;1.00;;;;;;5052599;28;20238;-80
2023/04/26 02:38:40;;;;;;;9.55;2.95;;;4.80;1.00;;;;;;5049953;28;20242;-79
2023/04/26 02:41:07;;;;;;;10.27;2.92;;;4.80;1.00;;;;;;5046416;28;20244;-80
2023/04/26 02:43:34;;;;;;;9.88;2.22;;;4.70;1.00;;;;;;5044497;28;20234;-83
2023/04/26 02:46:01;;;;;;;9.30;2.45;;;4.70;1.00;;;;;;5043585;28;20332;-81
2023/04/26 02:48:28;;;;;;;8.95;2.35;;;4.70;1.00;;;;;;5046896;28;20261;-79
2023/04/26 02:50:56;;;;;;;14.77;3.53;;;4.70;1.00;;;;;;5047475;28;20290;-80
2023/04/26 02:53:23;;;;;;;10.65;2.75;;;4.70;1.00;;;;;;5036764;28;20325;-79
2023/04/26 02:55:51;;;;;;;12.13;3.10;;;4.70;1.00;;;;;;5042168;28;20244;-79
2023/04/26 02:58:18;;;;;;;13.45;2.60;;;4.70;1.00;;;;;;5035777;28;20746;-79
2023/04/26 03:00:47;;;;;;;10.73;2.72;;;4.70;1.00;;;;;;5046778;28;20233;-80
2023/04/26 03:03:14;;;;;;;8.90;2.60;;;4.60;1.00;;;;;;5043759;28;20249;-80
2023/04/26 03:05:43;;;;;;;9.40;2.50;;;4.70;1.00;;;;;;5046616;28;20338;-80
2023/04/26 03:08:12;;;;;;;10.88;2.55;;;4.70;1.00;;;;;;5048399;28;20284;-81
2023/04/26 03:10:39;;;;;;;10.43;2.53;;;4.60;1.00;;;;;;5047475;28;20960;-79
2023/04/26 03:13:06;;;;;;;16.40;3.42;;;4.60;1.00;;;;;;5044717;28;20234;-80
2023/04/26 03:15:34;;;;;;;11.38;2.63;;;4.60;1.00;;;;;;5049306;28;20244;-81
2023/04/26 03:18:02;;;;;;;12.18;3.38;;;4.60;1.00;;;;;;5049680;28;20243;-80
2023/04/26 03:20:30;;;;;;;12.00;2.97;;;4.60;1.00;;;;;;5048987;28;20332;-80
2023/04/26 03:22:57;;;;;;;10.73;2.35;;;4.60;1.00;;;;;;5046812;28;20242;-81
2023/04/26 03:25:26;;;;;;;10.10;2.15;;;4.60;1.00;;;;;;5045970;28;20237;-81
2023/04/26 03:27:54;;;;;;;7.90;2.45;;;4.60;1.00;;;;;;5044264;28;20262;-81
2023/04/26 03:30:22;;;;;;;8.73;2.45;;;4.60;1.00;;;;;;5044355;28;20237;-79
2023/04/26 03:32:49;;;;;;;10.75;2.80;;;4.70;1.00;;;;;;5050262;28;20261;-81
2023/04/26 03:35:16;;;;;;;11.98;4.07;;;4.70;1.00;;;;;;5044149;28;20293;-81
2023/04/26 03:37:44;;;;;;;9.05;3.03;;;4.70;1.00;;;;;;5044638;28;20296;-79
2023/04/26 03:40:12;;;;;;;11.05;3.22;;;4.70;1.00;;;;;;5044022;28;20233;-80
2023/04/26 03:42:40;;;;;;;8.90;2.28;;;4.70;1.00;;;;;;5051438;28;20299;-80
2023/04/26 03:45:08;;;;;;;9.45;2.63;;;4.70;1.00;;;;;;5046723;28;20245;-79
2023/04/26 03:47:36;;;;;;;12.23;3.03;;;4.60;1.00;;;;;;5050340;28;20274;-79
2023/04/26 03:50:06;;;;;;;13.95;3.28;;;4.60;1.00;;;;;;5049874;28;20328;-81
2023/04/26 03:52:33;;;;;;;10.70;3.25;;;4.50;1.00;;;;;;5048432;28;20244;-81
2023/04/26 03:55:00;;;;;;;12.77;3.67;;;4.50;1.00;;;;;;5051239;28;20459;-80
2023/04/26 03:57:27;;;;;;;9.32;2.95;;;4.50;1.00;;;;;;5050938;28;20242;-80
2023/04/26 03:59:56;;;;;;;12.80;2.92;;;4.50;1.00;;;;;;5049040;28;20288;-79
2023/04/26 04:02:25;;;;;;;12.98;3.78;;;4.50;1.00;;;;;;5041539;28;20242;-80
2023/04/26 04:04:52;;;;;;;11.95;3.15;;;4.50;1.00;;;;;;5042115;28;20331;-81
2023/04/26 04:07:20;;;;;;;9.85;3.65;;;4.50;1.00;;;;;;5042533;28;20305;-79
2023/04/26 04:09:47;;;;;;;10.32;3.10;;;4.50;1.00;;;;;;5053319;28;20317;-80
2023/04/26 04:12:15;;;;;;;8.45;2.75;;;4.50;1.00;;;;;;5045676;28;20280;-81
2023/04/26 04:14:46;;;;;;;11.18;2.58;;;4.50;1.00;;;;;;5048961;28;22749;-81
2023/04/26 04:17:14;;;;;;;11.43;3.42;;;4.50;1.00;;;;;;5051191;28;20269;-80
2023/04/26 04:19:41;;;;;;;10.32;3.33;;;4.50;1.00;;;;;;5047555;28;20226;-81
2023/04/26 04:22:08;;;;;;;11.23;3.20;;;4.50;1.00;;;;;;5046137;28;20282;-83
2023/04/26 04:24:35;;;;;;;10.43;3.10;;;4.50;1.00;;;;;;5050837;28;20304;-82
2023/04/26 04:27:02;;;;;;;10.93;3.65;;;4.50;1.00;;;;;;5046224;28;21091;-84
2023/04/26 04:29:30;;;;;;;9.60;3.33;;;4.60;1.00;;;;;;5052161;28;20655;-82
2023/04/26 04:31:58;;;;;;;9.32;2.60;;;4.60;1.00;;;;;;5051005;28;20248;-84
2023/04/26 04:34:29;;;;;;;12.27;3.65;;;4.60;1.00;;;;;;5058323;28;20737;-84
2023/04/26 04:36:56;;;;;;;14.93;3.67;;;4.60;1.00;;;;;;5055367;28;20253;-85
2023/04/26 04:39:24;;;;;;;11.82;3.42;;;4.60;1.00;;;;;;5055001;28;21125;-85
2023/04/26 04:41:51;;;;;;;12.32;2.95;;;4.60;1.00;;;;;;5056483;28;20715;-86
2023/04/26 04:44:19;;;;;;;9.38;3.47;;;4.60;1.00;;;;;;5037799;28;20242;-85
2023/04/26 04:46:46;;;;;;;9.00;2.88;;;4.60;1.00;;;;;;5059705;28;20244;-85
2023/04/26 04:49:14;;;;;;;8.45;2.90;;;4.60;1.00;;;;;;5045294;28;20239;-86
2023/04/26 04:51:43;;;;;;;9.98;3.63;;;4.70;1.00;;;;;;5054920;28;20280;-86
2023/04/26 04:54:11;;;;;;;9.27;3.40;;;4.70;1.00;;;;;;5054399;28;20291;-84
2023/04/26 04:56:38;;;;;;;11.38;3.70;;;4.70;1.00;;;;;;5058280;28;20304;-84
2023/04/26 04:59:07;;;;;;;13.30;3.88;;;4.70;1.00;;;;;;5055368;28;21215;-87
2023/04/26 05:01:34;;;;;;;10.02;3.40;;;4.80;1.00;;;;;;5057320;28;20236;-84
2023/04/26 05:04:02;;;;;;;15.52;3.63;;;4.80;1.00;;;;;;5054456;28;20234;-83
2023/04/26 05:06:30;;;;;;;9.43;3.40;;;4.80;1.00;;;;;;5058664;28;20328;-84
2023/04/26 05:09:00;;;;;;;13.95;4.28;;;4.90;1.00;;;;;;5059810;28;20228;-84
2023/04/26 05:11:27;;;;;;;12.00;3.72;;;4.90;1.00;;;;;;5057762;28;20244;-84
2023/04/26 05:13:54;;;;;;;11.00;3.00;;;5.00;1.00;;;;;;5056714;28;20222;-84
2023/04/26 05:16:21;;;;;;;10.52;3.28;;;5.00;1.00;;;;;;5055941;28;20233;-84
2023/04/26 05:18:49;;;;;;;16.05;3.75;;;5.00;1.00;;;;;;5052323;28;20238;-83
2023/04/26 05:21:15;;;;;;;14.93;3.45;;;5.00;1.00;;;;;;5052896;28;20340;-84
2023/04/26 05:23:43;;;;;;;10.88;3.75;;;5.10;1.00;;;;;;5057956;28;20238;-84
2023/04/26 05:26:14;;;;;;;13.25;3.90;;;5.10;1.00;;;;;;5053989;28;20258;-82
2023/04/26 05:28:41;;;;;;;11.98;4.32;;;5.30;1.00;;;;;;5058357;28;20328;-84
2023/04/26 05:31:10;;;;;;;13.43;3.08;;;5.30;1.00;;;;;;5057697;28;20238;-84
2023/04/26 05:33:37;;;;;;;12.50;3.88;;;5.40;1.00;;;;;;5057951;28;20333;-82
2023/04/26 05:36:05;;;;;;;11.25;3.78;;;5.40;1.00;;;;;;5058802;28;20324;-85
2023/04/26 05:38:34;;;;;;;11.43;3.92;;;5.50;1.00;;;;;;5054767;28;20243;-84
2023/04/26 05:41:03;;;;;;;17.27;4.10;;;5.60;1.00;;;;;;5066461;28;20237;-83
2023/04/26 05:43:31;;;;;;;9.90;3.17;;;5.60;1.00;;;;;;5060868;28;20246;-84
2023/04/26 05:45:59;;;;;;;13.27;4.03;;;5.60;1.00;;;;;;5064189;28;20242;-83
2023/04/26 05:48:26;;;;;;;12.88;4.00;;;5.70;1.00;;;;;;5060167;28;20308;-81
2023/04/26 05:50:53;;;;;;;8.75;3.83;;;5.80;1.00;;;;;;5058134;28;20274;-84
2023/04/26 05:53:20;;;;;;;22.92;4.10;;;5.90;1.00;;;;;;5051951;28;20328;-82
2023/04/26 05:55:48;;;;;;;15.93;3.58;;;5.90;1.00;;;;;;5055611;28;20278;-82
2023/04/26 05:58:17;;;;;;;9.52;3.85;;;6.00;1.00;;;;;;5053235;28;20240;-84
2023/04/26 06:00:45;;;;;;;11.48;3.85;;;6.00;1.00;;;;;;5056927;28;20241;-84
2023/04/26 06:03:12;;;;;;;10.60;3.60;;;6.10;1.00;;;;;;5058847;28;20243;-82
2023/04/26 06:05:40;;;;;;;10.85;3.58;;;6.10;1.00;;;;;;5057875;28;20243;-83
2023/04/26 06:08:07;;;;;;;16.85;10.43;;;6.20;1.00;;;;;;5055783;28;20243;-85
2023/04/26 06:10:36;;;;;;;11.82;3.30;;;6.30;1.00;;;;;;5056585;28;20353;-84
2023/04/26 06:13:08;;;;;;;12.43;3.55;;;6.30;1.00;;;;;;5053925;28;20905;-83
2023/04/26 06:15:35;;;;;;;12.23;4.07;;;6.40;1.00;;;;;;5054841;28;20236;-84
2023/04/26 06:18:05;;;;;;;10.07;3.37;;;6.50;1.00;;;;;;5059526;28;20541;-84
2023/04/26 06:20:34;;;;;;;10.77;3.70;;;6.60;1.00;;;;;;5053548;28;20570;-84
2023/04/26 06:23:02;;;;;;;13.87;3.20;;;6.70;1.00;;;;;;5053815;28;20455;-87
2023/04/26 06:25:29;;;;;;;15.03;3.63;;;6.80;1.00;;;;;;5055453;28;20421;-83
2023/04/26 06:27:57;;;;;;;9.60;3.07;;;6.80;1.00;;;;;;5054104;28;20464;-83
2023/04/26 06:30:24;;;;;;;10.67;3.60;;;6.80;1.00;;;;;;5056399;28;20462;-83
2023/04/26 06:32:51;;;;;;;12.70;3.47;;;6.70;1.00;;;;;;5050460;28;20456;-84
2023/04/26 06:35:22;;;;;;;12.00;3.87;;;6.60;1.00;;;;;;5055579;28;20266;-82
2023/04/26 06:37:50;;;;;;;12.33;3.60;;;6.70;1.00;;;;;;5054394;28;20479;-82
2023/04/26 06:40:18;;;;;;;13.00;3.67;;;6.90;1.00;;;;;;5052884;28;20432;-84
2023/04/26 06:42:45;;;;;;;10.37;3.50;;;7.10;1.00;;;;;;5052744;28;20439;-82
2023/04/26 06:45:13;;;;;;;9.73;3.57;;;7.20;1.00;;;;;;5055729;28;20467;-81
2023/04/26 06:47:40;;;;;;;15.70;3.97;;;7.20;1.00;;;;;;5058317;28;20460;-81
2023/04/26 06:50:10;;;;;;;12.00;3.70;;;7.30;1.00;;;;;;5055688;28;20476;-82
2023/04/26 06:52:40;;;;;;;12.27;4.23;;;7.30;1.00;;;;;;5053534;28;20452;-81
2023/04/26 06:55:11;;;;;;;9.70;3.10;;;7.40;1.00;;;;;;5054384;28;20518;-82
2023/04/26 06:57:39;;;;;;;9.23;2.90;;;7.50;1.00;;;;;;5059248;28;20506;-83
2023/04/26 07:00:09;;;;;;;11.67;4.23;;;7.60;1.00;;;;;;5052867;28;20473;-82
2023/04/26 07:02:36;;;;;;;10.07;3.07;;;7.70;1.00;;;;;;5054757;28;20460;-82
2023/04/26 07:05:04;;;;;;;8.50;3.37;;;7.90;1.00;;;;;;5052044;28;20426;-82
2023/04/26 07:07:31;;;;;;;10.10;2.67;;;8.00;1.00;;;;;;5051393;28;20476;-81
2023/04/26 07:09:59;;;;;;;11.47;3.20;;;8.20;1.00;;;;;;5049890;28;20441;-81
2023/04/26 07:12:26;;;;;;;11.60;3.30;;;8.30;1.00;;;;;;5051760;28;20457;-83
2023/04/26 07:14:53;;;;;;;12.43;3.60;;;8.40;1.00;;;;;;5050602;28;21292;-83
2023/04/26 07:17:22;;;;;;;12.07;4.40;;;8.40;1.00;;;;;;5052370;28;21267;-82
2023/04/26 07:19:49;;;;;;;16.53;5.50;;;8.60;1.00;;;;;;5053248;28;20583;-82
2023/04/26 07:22:16;;;;;;;9.03;4.03;;;8.70;1.00;;;;;;5049772;28;21203;-82
2023/04/26 07:24:43;;;;;;;10.30;4.10;;;8.80;1.00;;;;;;5058399;28;20494;-82
2023/04/26 07:27:11;;;;;;;10.40;2.70;;;8.80;1.00;;;;;;5053486;28;20519;-81
2023/04/26 07:29:39;;;;;;;9.97;3.50;;;8.70;1.00;;;;;;5053682;28;21237;-81
2023/04/26 07:32:06;;;;;;;11.20;3.40;;;8.70;1.00;;;;;;5054565;28;20440;-82
2023/04/26 07:34:33;;;;;;;17.37;4.00;;;8.60;1.00;;;;;;5049084;28;20464;-82
2023/04/26 07:37:00;;;;;;;11.00;3.10;;;8.70;1.00;;;;;;5056255;28;20447;-81
2023/04/26 07:39:27;;;;;;;11.37;2.60;;;8.90;1.00;;;;;;5044830;28;20441;-82
2023/04/26 07:41:55;;;;;;;8.40;3.03;;;9.00;1.00;;;;;;5052740;28;20433;-80
2023/04/26 07:44:23;;;;;;;8.30;3.07;;;9.10;1.00;;;;;;5055143;28;21428;-81
2023/04/26 07:46:50;;;;;;;8.23;2.93;;;9.00;1.00;;;;;;5055023;28;20508;-82
2023/04/26 07:49:17;;;;;;;11.17;3.33;;;9.20;1.00;;;;;;5044419;28;20432;-80
2023/04/26 07:51:45;;;;;;;12.60;4.07;;;9.30;1.00;;;;;;5051722;28;20450;-81
2023/04/26 07:54:13;;;;;;;10.70;3.17;;;9.50;1.00;;;;;;5052756;28;20565;-82
2023/04/26 07:56:40;;;;;;;10.87;3.57;;;9.50;1.00;;;;;;5052568;28;20433;-82
2023/04/26 07:59:07;;;;;;;11.57;4.43;;;9.70;1.00;;;;;;5041389;28;20485;-82
2023/04/26 08:01:36;;;;;;;14.20;4.17;;;9.90;1.00;;;;;;5046744;28;20489;-83
2023/04/26 08:04:05;;;;;;;10.40;3.07;;;10.10;1.00;;;;;;5053150;28;20429;-83
2023/04/26 08:06:33;;;;;;;7.10;2.53;;;10.00;1.00;;;;;;5059688;28;20547;-82
2023/04/26 08:09:00;;;;;;;8.00;2.90;;;10.00;1.00;;;;;;5059066;28;20503;-83
2023/04/26 08:11:28;;;;;;;10.33;3.00;;;10.10;1.00;;;;;;5033342;28;21704;-82
2023/04/26 08:13:58;;;;;;;8.00;2.53;;;10.40;1.00;;;;;;5056214;28;20985;-83
2023/04/26 08:16:26;;;;;;;12.20;4.00;;;10.20;1.00;;;;;;5058312;28;20524;-81
2023/04/26 08:18:54;;;;;;;9.90;3.10;;;10.20;1.00;;;;;;5058031;28;20490;-82
2023/04/26 08:21:22;;;;;;;9.57;2.47;;;10.30;1.00;;;;;;5059477;28;20468;-82
2023/04/26 08:23:48;;;;;;;7.70;2.70;;;10.30;1.00;;;;;;5059670;28;20456;-83
2023/04/26 08:26:15;;;;;;;11.10;2.77;;;10.10;1.00;;;;;;5059422;28;20477;-80
2023/04/26 08:28:42;;;;;;;13.20;3.20;;;9.70;1.00;;;;;;5059010;28;20460;-83
2023/04/26 08:31:10;;;;;;;8.37;2.13;;;9.60;1.00;;;;;;5058152;28;20515;-83
2023/04/26 08:33:37;;;;;;;9.83;2.90;;;9.60;1.00;;;;;;5057249;28;20871;-80
2023/04/26 08:36:07;;;;;;;8.97;2.90;;;9.70;1.00;;;;;;5054576;28;20460;-81
2023/04/26 08:38:34;;;;;;;7.60;2.63;;;10.00;1.00;;;;;;5052776;28;20476;-81
2023/04/26 08:41:02;;;;;;;7.77;3.03;;;10.20;1.00;;;;;;5055943;28;21264;-82
2023/04/26 08:43:29;;;;;;;8.67;3.37;;;10.50;1.00;;;;;;5058713;28;20471;-82
2023/04/26 08:45:59;;;;;;;13.93;3.10;;;10.80;1.00;;;;;;5057223;28;20514;-84
2023/04/26 08:48:32;;;;;;;9.10;3.13;;;10.80;1.00;;;;;;5058305;28;20424;-82
2023/04/26 08:51:02;;;;;;;7.33;2.93;;;11.10;1.00;;;;;;5054803;28;20441;-83
2023/04/26 08:53:34;;;;;;;11.07;2.93;;;10.90;1.00;;;;;;5053264;28;20983;-83
2023/04/26 08:56:02;;;;;;;14.40;3.37;;;10.40;1.00;;;;;;5058574;28;20501;-84
2023/04/26 08:58:31;;;;;;;11.50;3.43;;;9.70;1.00;;;;;;5058151;28;20568;-83
2023/04/26 09:01:00;;;;;;;9.90;3.30;;;9.40;1.00;;;;;;5057834;28;20483;-84
2023/04/26 09:03:27;;;;;;;9.30;2.50;;;9.40;1.00;;;;;;5059788;28;20480;-83
2023/04/26 09:05:55;;;;;;;8.60;3.50;;;9.60;1.00;;;;;;5061142;28;20472;-84
2023/04/26 09:08:23;;;;;;;6.90;2.20;;;10.00;1.00;;;;;;5056884;28;20478;-83
2023/04/26 09:10:51;;;;;;;9.33;2.80;;;10.70;1.00;;;;;;5057020;28;20479;-84
2023/04/26 09:13:18;;;;;;;8.17;2.87;;;11.20;1.00;;;;;;5048454;28;20481;-85
2023/04/26 09:15:49;;;;;;;7.50;3.07;;;11.50;1.00;;;;;;5059075;28;20473;-85
2023/04/26 09:18:18;;;;;;;9.33;2.73;;;11.50;1.00;;;;;;5055449;28;20447;-85
2023/04/26 09:20:46;;;;;;;10.77;2.43;;;11.60;1.00;;;;;;5059209;28;20432;-84
2023/04/26 09:23:14;;;;;;;6.20;2.07;;;11.50;1.00;;;;;;5056450;28;20559;-83
2023/04/26 09:25:41;;;;;;;10.77;3.07;;;11.60;1.00;;;;;;5056750;28;20445;-84
2023/04/26 09:28:22;;;;;;;15.20;2.90;;;11.60;1.00;;;;;;5060703;28;20452;-84
2023/04/26 09:30:50;;;;;;;7.27;2.53;;;11.70;1.00;;;;;;5056962;28;20489;-81
2023/04/26 09:33:18;;;;;;;7.87;2.20;;;11.70;1.00;;;;;;5064030;28;20429;-83
2023/04/26 09:35:48;;;;;;;9.53;3.33;;;11.60;1.00;;;;;;5060082;28;20448;-85
2023/04/26 09:38:16;;;;;;;9.10;3.93;;;11.80;1.00;;;;;;5056270;28;20481;-81
2023/04/26 09:40:46;;;;;;;11.33;2.50;;;12.20;1.00;;;;;;5055988;28;20512;-80
2023/04/26 09:43:14;;;;;;;12.80;3.73;;;12.70;1.00;;;;;;5054505;28;20455;-81
2023/04/26 09:45:49;;;;;;;8.13;2.37;;;13.00;1.00;;;;;;5055951;28;20548;-80
2023/04/26 09:48:21;;;;;;;6.60;2.20;;;13.00;1.00;;;;;;5054173;28;20481;-81
2023/04/26 09:50:49;;;;;;;10.00;2.50;;;12.80;1.00;;;;;;5051850;28;20462;-81
2023/04/26 09:53:27;;;;;;;6.77;2.43;;;12.60;1.00;;;;;;5051421;28;20429;-83
2023/04/26 09:55:54;;;;;;;4.70;1.70;;;12.30;1.00;;;;;;5053694;28;20436;-86
2023/04/26 09:58:22;;;;;;;12.53;4.03;;;12.70;1.00;;;;;;5053929;28;20505;-84
2023/04/26 10:00:54;;;;;;;7.97;2.37;;;12.90;1.00;;;;;;5054005;28;20513;-85
2023/04/26 10:03:23;;;;;;;7.60;2.47;;;12.90;1.00;;;;;;5053127;28;20486;-82
2023/04/26 10:05:50;;;;;;;6.60;2.10;;;12.80;1.00;;;;;;5059459;28;20415;-84
2023/04/26 10:08:17;;;;;;;5.80;2.00;;;13.90;1.00;;;;;;5054674;28;20463;-84
2023/04/26 10:10:45;;;;;;;6.10;2.60;;;14.60;1.00;;;;;;5029626;28;20424;-83
2023/04/26 10:13:13;;;;;;;5.50;2.37;;;14.30;1.00;;;;;;5051085;28;20476;-85
2023/04/26 10:15:41;;;;;;;7.80;2.40;;;13.80;1.00;;;;;;5060487;28;20501;-84
2023/04/26 10:18:11;;;;;;;9.33;2.97;;;13.00;1.00;;;;;;5058873;28;20504;-83
2023/04/26 10:20:41;;;;;;;11.33;2.80;;;12.50;1.00;;;;;;5059296;28;21324;-84
2023/04/26 10:23:18;;;;;;;8.60;2.97;;;12.20;1.00;;;;;;5059997;28;20436;-84
2023/04/26 10:25:46;;;;;;;7.70;3.27;;;12.20;1.00;;;;;;5060029;28;20424;-85
2023/04/26 10:28:13;;;;;;;6.80;2.30;;;12.80;1.00;;;;;;5062109;28;21300;-86
2023/04/26 10:30:56;;;;;;;7.27;2.40;;;13.90;1.00;;;;;;5051909;28;20544;-85
2023/04/26 10:33:27;;;;;;;8.10;2.53;;;14.80;1.00;;;;;;5060391;28;20550;-85
2023/04/26 10:36:06;;;;;;;6.73;2.50;;;14.80;1.00;;;;;;5058065;28;20484;-86
2023/04/26 10:38:34;;;;;;;7.13;2.60;;;14.30;1.00;;;;;;5057293;28;20511;-84
2023/04/26 10:41:33;;;;;;;6.70;2.80;;;13.60;1.00;;;;;;5057458;28;20426;-84
2023/04/26 10:44:20;;;;;;;6.60;2.50;;;12.90;1.00;;;;;;5050581;28;20418;-85
2023/04/26 10:46:53;;;;;;;10.80;2.93;;;12.10;1.00;;;;;;5051686;28;20517;-85
2023/04/26 10:49:22;;;;;;;6.47;2.40;;;11.30;1.00;;;;;;5052433;28;20449;-83
2023/04/26 10:52:10;;;;;;;13.67;3.60;;;10.60;1.00;;;;;;5056377;28;20659;-84
2023/04/26 10:54:57;;;;;;;7.03;2.63;;;10.50;1.00;;;;;;5051027;28;20507;-85
2023/04/26 10:57:45;;;;;;;6.77;2.80;;;10.40;1.00;;;;;;5056468;28;20452;-84
2023/04/26 11:00:33;;;;;;;8.37;2.50;;;10.30;1.00;;;;;;5053936;28;20472;-85
2023/04/26 11:03:11;;;;;;;6.67;2.80;;;10.60;1.00;;;;;;5057813;28;21373;-85
2023/04/26 11:05:51;;;;;;;8.03;3.83;;;11.00;1.00;;;;;;5060837;28;21376;-84
2023/04/26 11:08:20;;;;;;;7.57;2.70;;;11.50;1.00;;;;;;5049261;28;20531;-85
2023/04/26 11:10:52;;;;;;;9.10;2.97;;;12.80;1.00;;;;;;5056831;28;20474;-85
2023/04/26 11:13:20;;;;;;;9.57;3.30;;;13.70;1.00;;;;;;5056678;28;20428;-85
2023/04/26 11:15:53;;;;;;;7.43;3.60;;;13.70;1.00;;;;;;5061623;28;20438;-85
2023/04/26 11:18:22;;;;;;;6.40;2.90;;;12.90;1.00;;;;;;5062044;28;20453;-84
2023/04/26 11:20:53;;;;;;;7.30;3.23;;;12.40;1.00;;;;;;5055001;28;20838;-84
2023/04/26 11:23:20;;;;;;;8.93;3.80;;;12.10;1.00;;;;;;5052356;28;20465;-84
2023/04/26 11:25:47;;;;;;;8.13;3.27;;;11.90;1.00;;;;;;5055694;28;20465;-82
2023/04/26 11:28:14;;;;;;;11.07;3.23;;;12.00;1.00;;;;;;5045261;28;20579;-83
2023/04/26 11:30:41;;;;;;;8.83;3.30;;;12.10;1.00;;;;;;5051624;28;20472;-82
2023/04/26 11:33:18;;;;;;;9.53;2.90;;;12.10;1.00;;;;;;5054043;28;20504;-83
2023/04/26 11:35:46;;;;;;;11.67;3.83;;;12.30;1.00;;;;;;5054694;28;20497;-84
2023/04/26 11:38:15;;;;;;;6.90;3.10;;;12.80;1.00;;;;;;5053872;28;20462;-83
2023/04/26 11:40:42;;;;;;;8.30;3.97;;;13.40;1.00;;;;;;5053384;28;20529;-83
2023/04/26 11:43:10;;;;;;;9.90;3.50;;;13.90;1.00;;;;;;5048240;28;20900;-82
2023/04/26 11:45:38;;;;;;;8.53;4.53;;;13.90;1.00;;;;;;5053095;28;20515;-84
2023/04/26 11:48:07;;;;;;;8.87;3.80;;;13.90;1.00;;;;;;5041168;28;20452;-85
2023/04/26 11:50:35;;;;;;;7.53;4.00;;;13.60;1.00;;;;;;5058142;28;20438;-83
2023/04/26 11:53:05;;;;;;;8.03;4.37;;;13.50;1.00;;;;;;5054747;28;20466;-83
2023/04/26 11:55:34;;;;;;;7.90;3.37;;;13.50;1.00;;;;;;5051094;28;20475;-84
2023/04/26 11:58:09;;;;;;;8.37;3.53;;;13.50;1.00;;;;;;5053816;28;20477;-84
2023/04/26 12:00:36;;;;;;;9.17;3.87;;;13.40;1.00;;;;;;5056543;28;20470;-84
2023/04/26 12:03:09;;;;;;;8.93;3.73;;;12.70;1.00;;;;;;5057359;28;20527;-83
2023/04/26 12:05:37;;;;;;;8.07;4.43;;;12.30;1.00;;;;;;5054554;28;20457;-84
2023/04/26 12:08:04;;;;;;;9.13;3.60;;;12.10;1.00;;;;;;5054959;28;20496;-84
2023/04/26 12:10:35;;;;;;;11.47;3.97;;;12.00;1.00;;;;;;5056264;28;20473;-84
2023/04/26 12:13:02;;;;;;;8.73;3.93;;;12.20;1.00;;;;;;5048480;28;20483;-85
2023/04/26 12:15:30;;;;;;;9.70;3.77;;;12.50;1.00;;;;;;5052124;28;20529;-85
2023/04/26 12:18:00;;;;;;;7.30;3.17;;;13.30;1.00;;;;;;5055661;28;20498;-84
2023/04/26 12:20:31;;;;;;;7.10;3.03;;;15.40;1.00;;;;;;5050985;28;20598;-83
2023/04/26 12:23:04;;;;;;;9.53;2.70;;;17.60;1.00;;;;;;5055019;28;20545;-82
2023/04/26 12:25:33;;;;;;;5.70;2.70;;;20.00;1.00;;;;;;5050718;28;20481;-83
2023/04/26 12:28:01;;;;;;;5.43;2.97;;;20.70;1.00;;;;;;5053012;28;20460;-84
2023/04/26 12:30:29;;;;;;;8.93;3.40;;;20.80;1.00;;;;;;5051388;28;20503;-85
2023/04/26 12:32:57;;;;;;;7.40;3.37;;;19.60;1.00;;;;;;5058806;28;20431;-86
2023/04/26 12:35:24;;;;;;;9.10;4.50;;;18.20;1.00;;;;;;5057691;28;20453;-82
2023/04/26 12:37:52;;;;;;;15.77;6.10;;;16.70;1.00;;;;;;5053121;28;21050;-84
2023/04/26 12:40:19;;;;;;;9.80;4.20;;;15.90;1.00;;;;;;5049895;28;20502;-83
2023/04/26 12:42:49;;;;;;;7.90;2.97;;;15.10;1.00;;;;;;5058725;28;21064;-83
2023/04/26 12:45:17;;;;;;;9.17;3.67;;;14.00;1.00;;;;;;5057271;28;20494;-84
2023/04/26 12:47:44;;;;;;;7.60;3.30;;;13.40;1.00;;;;;;5055565;28;21189;-83
2023/04/26 12:50:12;;;;;;;8.60;3.20;;;13.00;1.00;;;;;;5052543;28;20530;-83
2023/04/26 12:52:39;;;;;;;8.87;4.00;;;12.80;1.00;;;;;;5059603;28;20505;-82
2023/04/26 12:55:07;;;;;;;8.43;3.50;;;12.60;1.00;;;;;;5057472;28;20423;-83
2023/04/26 12:57:35;;;;;;;6.47;3.30;;;12.70;1.00;;;;;;5060042;28;20479;-83
2023/04/26 13:00:05;;;;;;;6.57;3.47;;;12.80;1.00;;;;;;5056735;28;20875;-84
2023/04/26 13:02:32;;;;;;;8.30;4.43;;;13.00;1.00;;;;;;5057509;28;20459;-83
2023/04/26 13:05:03;;;;;;;8.30;3.30;;;14.20;1.00;;;;;;5037093;28;20472;-82